createdAt,value
2023-01-31T00:00:40.412Z,53.9
2023-01-31T00:05:47.383Z,53.9
2023-01-31T00:11:10.760Z,53.8
2023-01-31T00:16:34.192Z,53.8
2023-01-31T00:21:57.363Z,53.8
2023-01-31T00:27:21.303Z,53.7
2023-01-31T00:32:45.642Z,53.6
2023-01-31T00:38:07.767Z,53.6
2023-01-31T00:43:14.767Z,53.6
2023-01-31T00:48:22.394Z,53.5
2023-01-31T00:53:45.233Z,53.5
2023-01-31T00:59:09.766Z,53.4
2023-01-31T01:04:33.021Z,53.4
2023-01-31T01:09:56.168Z,53.4
2023-01-31T01:15:19.073Z,53.3
2023-01-31T01:20:43.291Z,53.3
2023-01-31T01:26:07.960Z,53.3
2023-01-31T01:31:30.800Z,53.2
2023-01-31T01:36:38.926Z,53.2
2023-01-31T01:42:02.875Z,53.1
2023-01-31T01:47:10.940Z,53.1
2023-01-31T01:52:19.595Z,53.1
2023-01-31T01:57:26.980Z,53
2023-01-31T02:02:49.042Z,53
2023-01-31T02:08:11.867Z,52.9
2023-01-31T02:13:35.979Z,52.9
2023-01-31T02:18:43.605Z,52.9
2023-01-31T02:23:50.740Z,52.8
2023-01-31T02:29:13.135Z,53.6
2023-01-31T02:34:35.959Z,55.1
2023-01-31T02:39:43.790Z,56.4
2023-01-31T02:45:05.503Z,58
2023-01-31T02:50:28.329Z,59.5
2023-01-31T02:55:51.587Z,61.1
2023-01-31T03:01:15.334Z,62.3
2023-01-31T03:06:38.347Z,62.3
2023-01-31T03:12:01.778Z,62.3
2023-01-31T03:17:24.951Z,62.3
2023-01-31T03:22:15.887Z,62.3
2023-01-31T03:27:40.371Z,62.2
2023-01-31T03:33:04.023Z,62.2
2023-01-31T03:38:25.502Z,62.1
2023-01-31T03:43:49.719Z,62.1
2023-01-31T03:49:14.047Z,62
2023-01-31T03:54:35.945Z,62
2023-01-31T03:59:58.965Z,61.9
2023-01-31T04:05:07.128Z,61.9
2023-01-31T04:10:30.579Z,61.8
2023-01-31T04:15:38.768Z,61.8
2023-01-31T04:21:01.281Z,61.8
2023-01-31T04:26:25.263Z,61.7
2023-01-31T04:31:49.073Z,61.7
2023-01-31T04:37:12.258Z,61.6
2023-01-31T04:42:34.769Z,61.6
2023-01-31T04:47:58.612Z,61.5
2023-01-31T04:53:21.737Z,61.4
2023-01-31T04:58:44.750Z,61.4
2023-01-31T05:04:08.241Z,61.4
2023-01-31T05:09:17.778Z,61.3
2023-01-31T05:14:41.259Z,61.3
2023-01-31T05:20:04.457Z,61.3
2023-01-31T05:25:29.850Z,61.2
2023-01-31T05:30:56.417Z,61.1
2023-01-31T05:36:22.575Z,61.1
2023-01-31T05:41:45.260Z,61
2023-01-31T05:47:07.878Z,60.9
2023-01-31T05:52:15.444Z,60.9
2023-01-31T05:57:23.807Z,60.9
2023-01-31T06:02:47.349Z,60.8
2023-01-31T06:07:55.710Z,60.8
2023-01-31T06:13:18.282Z,60.8
2023-01-31T06:18:27.040Z,60.7
2023-01-31T06:23:50.075Z,60.6
2023-01-31T06:29:13.383Z,60.6
2023-01-31T06:34:49.484Z,60.6
2023-01-31T06:40:14.102Z,60.5
2023-01-31T06:45:06.685Z,60.4
2023-01-31T06:50:30.388Z,60.4
2023-01-31T06:55:54.397Z,60.4
2023-01-31T07:01:17.283Z,60.3
2023-01-31T07:06:40.416Z,60.3
2023-01-31T07:12:03.556Z,60.2
2023-01-31T07:17:26.881Z,60.1
2023-01-31T07:22:49.398Z,60.1
2023-01-31T07:28:14.429Z,60.1
2023-01-31T07:34:35.001Z,60
2023-01-31T07:39:57.940Z,59.9
2023-01-31T07:45:50.095Z,59.9
2023-01-31T07:51:13.800Z,59.9
2023-01-31T07:56:37.367Z,59.8
2023-01-31T08:02:00.840Z,59.8
2023-01-31T08:07:31.807Z,59.7
2023-01-31T08:12:54.199Z,59.6
2023-01-31T08:18:17.248Z,59.6
2023-01-31T08:23:40.800Z,59.5
2023-01-31T08:29:04.953Z,59.5
2023-01-31T08:34:43.456Z,59.4
2023-01-31T08:40:19.576Z,59.4
2023-01-31T08:45:56.455Z,59.3
2023-01-31T08:51:17.277Z,59.3
2023-01-31T08:56:41.025Z,59.3
2023-01-31T09:02:16.315Z,59.2
2023-01-31T09:07:40.083Z,59.1
2023-01-31T09:13:03.455Z,59.1
2023-01-31T09:18:26.237Z,59
2023-01-31T09:23:34.659Z,59
2023-01-31T09:29:12.843Z,58.9
2023-01-31T09:34:37.081Z,58.9
2023-01-31T09:40:00.248Z,58.8
2023-01-31T09:45:22.940Z,58.8
2023-01-31T09:50:47.188Z,58.8
2023-01-31T09:56:11.450Z,58.7
2023-01-31T10:01:35.404Z,58.6
2023-01-31T10:06:58.786Z,58.6
2023-01-31T10:37:50.326Z,58.5
2023-01-31T10:43:14.700Z,58.4
2023-01-31T10:48:38.247Z,58.4
2023-01-31T10:54:02.871Z,58.4
2023-01-31T10:59:25.243Z,58.4
2023-01-31T11:04:48.080Z,58.3
2023-01-31T11:09:56.032Z,58.3
2023-01-31T11:15:18.290Z,58.3
2023-01-31T11:20:41.452Z,58.2
2023-01-31T11:26:04.041Z,58.2
2023-01-31T11:31:27.316Z,58.1
2023-01-31T11:36:49.892Z,58.1
2023-01-31T11:41:56.912Z,58.1
2023-01-31T11:47:19.525Z,58
2023-01-31T11:52:45.840Z,57.9
2023-01-31T11:58:08.580Z,57.9
2023-01-31T12:03:32.523Z,57.9
2023-01-31T12:09:09.071Z,57.8
2023-01-31T12:14:41.616Z,57.8
2023-01-31T12:25:32.107Z,57.7
2023-01-31T12:30:55.512Z,57.6
2023-01-31T12:36:33.559Z,57.6
2023-01-31T12:42:05.285Z,57.6
2023-01-31T12:47:43.182Z,57.5
2023-01-31T12:53:06.307Z,57.5
2023-01-31T12:58:29.788Z,57.4
2023-01-31T13:04:06.025Z,57.3
2023-01-31T13:09:41.411Z,57.3
2023-01-31T13:15:05.140Z,57.3
2023-01-31T13:20:12.548Z,57.2
2023-01-31T13:25:36.088Z,57.1
2023-01-31T13:30:58.825Z,57.1
2023-01-31T13:36:22.127Z,57.1
2023-01-31T13:41:29.363Z,57
2023-01-31T13:46:52.921Z,57
2023-01-31T13:52:16.195Z,56.9
2023-01-31T13:57:26.641Z,56.9
2023-01-31T14:02:52.220Z,56.8
2023-01-31T14:08:14.835Z,56.8
2023-01-31T14:13:38.750Z,56.8
2023-01-31T14:19:02.708Z,56.7
2023-01-31T14:24:25.612Z,56.6
2023-01-31T14:29:50.124Z,56.6
2023-01-31T14:35:13.496Z,56.5
2023-01-31T14:40:36.306Z,56.5
2023-01-31T14:45:59.210Z,56.4
2023-01-31T14:51:26.831Z,56.4
2023-01-31T14:56:48.390Z,56.4
2023-01-31T15:02:11.237Z,56.3
2023-01-31T15:07:34.117Z,56.3
2023-01-31T15:13:05.340Z,56.2
2023-01-31T15:18:57.920Z,56.2
2023-01-31T15:24:21.026Z,56.1
2023-01-31T15:29:44.157Z,56.1
2023-01-31T15:35:07.515Z,56.1
2023-01-31T15:40:14.718Z,55.9
2023-01-31T15:45:37.759Z,55.9
2023-01-31T15:51:17.792Z,55.9
2023-01-31T15:56:43.531Z,55.8
2023-01-31T16:02:07.134Z,55.8
2023-01-31T16:07:29.765Z,55.8
2023-01-31T16:12:27.169Z,55.7
2023-01-31T16:17:50.328Z,55.6
2023-01-31T16:23:13.224Z,55.6
2023-01-31T16:28:36.224Z,55.6
2023-01-31T16:34:00.615Z,55.5
2023-01-31T16:39:22.195Z,55.4
2023-01-31T16:44:44.630Z,55.4
2023-01-31T16:50:07.159Z,55.4
2023-01-31T16:55:46.897Z,55.3
2023-01-31T17:01:10.384Z,55.3
2023-01-31T17:06:36.767Z,55.3
2023-01-31T17:11:58.776Z,55.2
2023-01-31T17:17:09.878Z,55.1
2023-01-31T17:22:35.500Z,55.1
2023-01-31T17:28:10.842Z,55.1
2023-01-31T17:33:39.053Z,55
2023-01-31T17:39:12.502Z,54.9
2023-01-31T17:44:47.256Z,54.9
2023-01-31T17:50:09.876Z,54.9
2023-01-31T17:55:32.997Z,54.8
2023-01-31T18:01:12.256Z,54.8
2023-01-31T18:07:05.112Z,54.8
2023-01-31T18:12:24.594Z,54.7
2023-01-31T18:17:59.962Z,54.6
2023-01-31T18:23:22.788Z,54.6
2023-01-31T18:29:06.290Z,54.6
2023-01-31T18:34:44.184Z,54.5
2023-01-31T18:40:38.144Z,54.5
2023-01-31T18:46:14.610Z,54.4
2023-01-31T18:51:49.699Z,54.4
2023-01-31T18:57:25.335Z,54.4
2023-01-31T19:03:03.726Z,54.3
2023-01-31T19:08:20.363Z,54.3
2023-01-31T19:13:30.210Z,54.2
2023-01-31T19:18:34.922Z,54.2
2023-01-31T19:24:12.117Z,54.1
2023-01-31T19:29:31.806Z,54.1
2023-01-31T19:35:11.455Z,54.1
2023-01-31T19:40:46.743Z,54
2023-01-31T19:46:30.348Z,53.9
2023-01-31T19:52:10.590Z,53.9
2023-01-31T19:57:24.955Z,53.9
2023-01-31T20:02:31.950Z,53.8
2023-01-31T20:07:39.919Z,53.8
2023-01-31T20:12:47.399Z,53.8
2023-01-31T20:18:11.696Z,53.7
2023-01-31T20:23:21.009Z,53.6
2023-01-31T20:28:44.101Z,53.6
2023-01-31T20:34:07.037Z,53.6
2023-01-31T20:38:59.155Z,53.6
2023-01-31T20:44:06.897Z,53.5
2023-01-31T20:49:31.370Z,53.4
2023-01-31T20:54:39.354Z,53.4
2023-01-31T20:59:46.594Z,53.4
2023-01-31T21:04:54.047Z,53.3
2023-01-31T21:10:01.643Z,53.3
2023-01-31T21:15:24.716Z,53.3
2023-01-31T21:20:57.914Z,53.2
2023-01-31T21:26:04.883Z,53.1
2023-01-31T21:31:29.391Z,53.1
2023-01-31T21:36:52.057Z,53.1
2023-01-31T21:42:14.846Z,53.1
2023-01-31T21:47:22.091Z,53
2023-01-31T21:52:32.439Z,52.9
2023-01-31T21:57:55.451Z,52.9
2023-01-31T22:03:19.198Z,52.9
2023-01-31T22:08:26.335Z,52.8
2023-01-31T22:13:34.089Z,52.8
2023-01-31T22:18:59.204Z,52.8
2023-01-31T22:24:22.502Z,52.7
2023-01-31T22:29:45.382Z,52.7
2023-01-31T22:35:23.001Z,52.6
2023-01-31T22:40:45.837Z,52.6
2023-01-31T22:46:10.252Z,52.6
2023-01-31T22:51:33.450Z,52.5
2023-01-31T22:56:56.139Z,52.4
2023-01-31T23:02:18.830Z,52.4
2023-01-31T23:12:33.157Z,52.3
2023-01-31T23:17:55.626Z,52.3
2023-01-31T23:23:03.136Z,52.3
2023-01-31T23:28:26.255Z,52.3
2023-01-31T23:33:34.724Z,52.2
2023-01-31T23:38:42.233Z,52.1
2023-01-31T23:44:04.960Z,52.1
2023-01-31T23:49:27.349Z,52.1
2023-01-31T23:54:51.524Z,52
